sensor_id;sensor_type;location;lat;lon;timestamp;pressure;altitude;pressure_sealevel;temperature;humidity
9905;BME280;4991;43.566;27.820;2023-01-29T00:01:54;98973.91;;;-1.07;100.00
9905;BME280;4991;43.566;27.820;2023-01-29T00:04:20;98976.00;;;-1.09;100.00
9905;BME280;4991;43.566;27.820;2023-01-29T00:06:46;98974.38;;;-1.10;100.00
9905;BME280;4991;43.566;27.820;2023-01-29T00:09:12;98976.59;;;-1.07;100.00
9905;BME280;4991;43.566;27.820;2023-01-29T00:11:38;98975.16;;;-1.09;100.00
9905;BME280;4991;43.566;27.820;2023-01-29T00:14:04;98967.97;;;-1.09;100.00
9905;BME280;4991;43.566;27.820;2023-01-29T00:16:30;98965.53;;;-1.10;100.00
9905;BME280;4991;43.566;27.820;2023-01-29T00:18:56;98969.25;;;-1.11;100.00
9905;BME280;4991;43.566;27.820;2023-01-29T00:21:22;98973.78;;;-1.12;100.00
9905;BME280;4991;43.566;27.820;2023-01-29T00:23:48;98984.00;;;-1.09;100.00
9905;BME280;4991;43.566;27.820;2023-01-29T00:26:15;98980.41;;;-1.14;100.00
9905;BME280;4991;43.566;27.820;2023-01-29T00:28:40;98969.72;;;-1.14;100.00
9905;BME280;4991;43.566;27.820;2023-01-29T00:31:11;98973.63;;;-1.17;100.00
9905;BME280;4991;43.566;27.820;2023-01-29T00:33:37;98982.09;;;-1.20;100.00
9905;BME280;4991;43.566;27.820;2023-01-29T00:36:04;98981.66;;;-1.17;100.00
9905;BME280;4991;43.566;27.820;2023-01-29T00:38:31;98986.16;;;-1.17;100.00
9905;BME280;4991;43.566;27.820;2023-01-29T00:40:56;98987.44;;;-1.20;100.00
9905;BME280;4991;43.566;27.820;2023-01-29T00:43:40;98985.94;;;-1.16;100.00
9905;BME280;4991;43.566;27.820;2023-01-29T00:46:24;98985.38;;;-1.18;100.00
9905;BME280;4991;43.566;27.820;2023-01-29T00:48:50;98988.06;;;-1.18;100.00
9905;BME280;4991;43.566;27.820;2023-01-29T00:51:15;98988.69;;;-1.22;100.00
9905;BME280;4991;43.566;27.820;2023-01-29T00:53:41;98988.47;;;-1.21;100.00
9905;BME280;4991;43.566;27.820;2023-01-29T00:56:06;98994.88;;;-1.22;100.00
9905;BME280;4991;43.566;27.820;2023-01-29T00:58:32;98999.38;;;-1.22;100.00
9905;BME280;4991;43.566;27.820;2023-01-29T01:01:01;99003.78;;;-1.28;100.00
9905;BME280;4991;43.566;27.820;2023-01-29T01:03:27;98999.47;;;-1.29;100.00
9905;BME280;4991;43.566;27.820;2023-01-29T01:06:07;99000.88;;;-1.26;100.00
9905;BME280;4991;43.566;27.820;2023-01-29T01:08:33;98999.22;;;-1.27;100.00
9905;BME280;4991;43.566;27.820;2023-01-29T01:11:18;98985.53;;;-1.31;100.00
9905;BME280;4991;43.566;27.820;2023-01-29T01:13:44;98992.28;;;-1.28;100.00
9905;BME280;4991;43.566;27.820;2023-01-29T01:16:14;98996.41;;;-1.33;100.00
9905;BME280;4991;43.566;27.820;2023-01-29T01:18:40;98998.75;;;-1.36;100.00
9905;BME280;4991;43.566;27.820;2023-01-29T01:21:07;99000.75;;;-1.32;100.00
9905;BME280;4991;43.566;27.820;2023-01-29T01:23:33;99001.97;;;-1.34;100.00
9905;BME280;4991;43.566;27.820;2023-01-29T01:25:59;99001.84;;;-1.39;100.00
9905;BME280;4991;43.566;27.820;2023-01-29T01:28:26;99005.94;;;-1.37;100.00
9905;BME280;4991;43.566;27.820;2023-01-29T01:30:52;98998.75;;;-1.36;100.00
9905;BME280;4991;43.566;27.820;2023-01-29T01:33:18;99005.47;;;-1.34;100.00
9905;BME280;4991;43.566;27.820;2023-01-29T01:35:43;99004.44;;;-1.33;100.00
9905;BME280;4991;43.566;27.820;2023-01-29T01:38:09;98998.88;;;-1.31;100.00
9905;BME280;4991;43.566;27.820;2023-01-29T01:40:35;98996.41;;;-1.33;100.00
9905;BME280;4991;43.566;27.820;2023-01-29T01:43:01;99003.41;;;-1.32;100.00
9905;BME280;4991;43.566;27.820;2023-01-29T01:45:32;98997.00;;;-1.31;100.00
9905;BME280;4991;43.566;27.820;2023-01-29T01:48:18;99001.34;;;-1.29;100.00
9905;BME280;4991;43.566;27.820;2023-01-29T01:51:00;98991.53;;;-1.36;100.00
9905;BME280;4991;43.566;27.820;2023-01-29T01:53:33;99004.09;;;-1.36;100.00
9905;BME280;4991;43.566;27.820;2023-01-29T01:56:05;99001.25;;;-1.41;100.00
9905;BME280;4991;43.566;27.820;2023-01-29T01:59:01;99001.91;;;-1.46;100.00
9905;BME280;4991;43.566;27.820;2023-01-29T02:01:27;99014.00;;;-1.43;100.00
9905;BME280;4991;43.566;27.820;2023-01-29T02:04:14;99006.69;;;-1.48;100.00
9905;BME280;4991;43.566;27.820;2023-01-29T02:07:02;99016.38;;;-1.53;100.00
9905;BME280;4991;43.566;27.820;2023-01-29T02:10:09;99025.69;;;-1.62;100.00
9905;BME280;4991;43.566;27.820;2023-01-29T02:12:37;99028.44;;;-1.69;100.00
9905;BME280;4991;43.566;27.820;2023-01-29T02:15:03;99018.66;;;-1.75;100.00
9905;BME280;4991;43.566;27.820;2023-01-29T02:17:30;99013.16;;;-1.80;100.00
9905;BME280;4991;43.566;27.820;2023-01-29T02:39:30;99036.22;;;-1.67;100.00
9905;BME280;4991;43.566;27.820;2023-01-29T02:42:20;99037.88;;;-1.66;100.00
9905;BME280;4991;43.566;27.820;2023-01-29T02:45:03;99051.84;;;-1.71;100.00
9905;BME280;4991;43.566;27.820;2023-01-29T02:47:33;99041.78;;;-1.69;100.00
9905;BME280;4991;43.566;27.820;2023-01-29T02:55:23;99037.94;;;-1.73;100.00
9905;BME280;4991;43.566;27.820;2023-01-29T02:57:53;99040.59;;;-1.73;100.00
9905;BME280;4991;43.566;27.820;2023-01-29T03:00:27;99044.50;;;-1.75;100.00
9905;BME280;4991;43.566;27.820;2023-01-29T03:05:30;99046.34;;;-1.76;100.00
9905;BME280;4991;43.566;27.820;2023-01-29T03:08:00;99055.41;;;-1.77;100.00
9905;BME280;4991;43.566;27.820;2023-01-29T03:10:39;99055.41;;;-1.77;100.00
9905;BME280;4991;43.566;27.820;2023-01-29T03:18:56;99062.38;;;-1.76;100.00
9905;BME280;4991;43.566;27.820;2023-01-29T03:21:55;99072.84;;;-1.74;100.00
9905;BME280;4991;43.566;27.820;2023-01-29T03:24:27;99080.25;;;-1.76;100.00
9905;BME280;4991;43.566;27.820;2023-01-29T03:27:16;99074.31;;;-1.78;100.00
9905;BME280;4991;43.566;27.820;2023-01-29T03:30:02;99066.31;;;-1.78;100.00
9905;BME280;4991;43.566;27.820;2023-01-29T03:32:49;99059.53;;;-1.81;100.00
9905;BME280;4991;43.566;27.820;2023-01-29T03:35:19;99063.03;;;-1.80;100.00
9905;BME280;4991;43.566;27.820;2023-01-29T03:38:03;99076.22;;;-1.85;100.00
9905;BME280;4991;43.566;27.820;2023-01-29T03:40:36;99071.03;;;-1.80;100.00
9905;BME280;4991;43.566;27.820;2023-01-29T03:46:17;99078.03;;;-1.79;100.00
9905;BME280;4991;43.566;27.820;2023-01-29T03:48:54;99077.03;;;-1.85;100.00
9905;BME280;4991;43.566;27.820;2023-01-29T03:51:31;99079.53;;;-1.90;100.00
9905;BME280;4991;43.566;27.820;2023-01-29T03:56:40;99082.38;;;-1.85;100.00
9905;BME280;4991;43.566;27.820;2023-01-29T03:59:54;99093.66;;;-1.83;100.00
9905;BME280;4991;43.566;27.820;2023-01-29T04:02:26;99084.00;;;-1.84;100.00
9905;BME280;4991;43.566;27.820;2023-01-29T04:05:03;99079.97;;;-1.93;100.00
9905;BME280;4991;43.566;27.820;2023-01-29T04:07:30;99084.59;;;-1.82;100.00
9905;BME280;4991;43.566;27.820;2023-01-29T04:10:08;99086.63;;;-1.77;100.00
9905;BME280;4991;43.566;27.820;2023-01-29T04:12:49;99092.41;;;-1.80;100.00
9905;BME280;4991;43.566;27.820;2023-01-29T04:15:17;99093.44;;;-1.81;100.00
9905;BME280;4991;43.566;27.820;2023-01-29T04:17:48;99094.84;;;-1.79;100.00
9905;BME280;4991;43.566;27.820;2023-01-29T04:20:15;99094.84;;;-1.79;100.00
9905;BME280;4991;43.566;27.820;2023-01-29T04:22:44;99095.63;;;-1.72;100.00
9905;BME280;4991;43.566;27.820;2023-01-29T04:25:14;99100.56;;;-1.75;100.00
9905;BME280;4991;43.566;27.820;2023-01-29T04:27:49;99101.41;;;-1.75;100.00
9905;BME280;4991;43.566;27.820;2023-01-29T04:38:55;99106.94;;;-1.76;100.00
9905;BME280;4991;43.566;27.820;2023-01-29T04:41:34;99102.00;;;-1.73;100.00
9905;BME280;4991;43.566;27.820;2023-01-29T04:44:07;99108.75;;;-1.70;100.00
9905;BME280;4991;43.566;27.820;2023-01-29T04:52:23;99107.91;;;-1.71;100.00
9905;BME280;4991;43.566;27.820;2023-01-29T04:55:03;99113.47;;;-1.72;100.00
9905;BME280;4991;43.566;27.820;2023-01-29T05:00:15;99112.41;;;-1.65;100.00
9905;BME280;4991;43.566;27.820;2023-01-29T05:02:43;99126.72;;;-1.59;100.00
9905;BME280;4991;43.566;27.820;2023-01-29T05:05:12;99123.25;;;-1.60;100.00
9905;BME280;4991;43.566;27.820;2023-01-29T05:07:39;99131.66;;;-1.56;100.00
9905;BME280;4991;43.566;27.820;2023-01-29T05:10:08;99127.09;;;-1.56;100.00
9905;BME280;4991;43.566;27.820;2023-01-29T05:12:36;99125.63;;;-1.52;100.00
9905;BME280;4991;43.566;27.820;2023-01-29T05:15:05;99131.19;;;-1.53;100.00
9905;BME280;4991;43.566;27.820;2023-01-29T05:17:32;99128.09;;;-1.50;100.00
9905;BME280;4991;43.566;27.820;2023-01-29T05:19:58;99126.69;;;-1.53;100.00
9905;BME280;4991;43.566;27.820;2023-01-29T05:22:24;99119.03;;;-1.49;100.00
9905;BME280;4991;43.566;27.820;2023-01-29T05:24:51;99141.81;;;-1.47;100.00
9905;BME280;4991;43.566;27.820;2023-01-29T05:27:20;99125.97;;;-1.42;100.00
9905;BME280;4991;43.566;27.820;2023-01-29T05:30:06;99129.53;;;-1.48;100.00
9905;BME280;4991;43.566;27.820;2023-01-29T05:32:31;99131.53;;;-1.43;100.00
9905;BME280;4991;43.566;27.820;2023-01-29T05:34:57;99144.88;;;-1.43;100.00
9905;BME280;4991;43.566;27.820;2023-01-29T05:37:23;99141.38;;;-1.44;100.00
9905;BME280;4991;43.566;27.820;2023-01-29T05:39:48;99147.09;;;-1.40;100.00
9905;BME280;4991;43.566;27.820;2023-01-29T05:42:14;99142.53;;;-1.33;100.00
9905;BME280;4991;43.566;27.820;2023-01-29T05:44:40;99151.72;;;-1.29;100.00
9905;BME280;4991;43.566;27.820;2023-01-29T05:47:05;99148.25;;;-1.29;100.00
9905;BME280;4991;43.566;27.820;2023-01-29T05:49:31;99147.38;;;-1.23;100.00
9905;BME280;4991;43.566;27.820;2023-01-29T05:51:56;99151.25;;;-1.19;100.00
9905;BME280;4991;43.566;27.820;2023-01-29T05:54:22;99148.94;;;-1.16;100.00
9905;BME280;4991;43.566;27.820;2023-01-29T05:56:47;99159.47;;;-1.21;100.00
9905;BME280;4991;43.566;27.820;2023-01-29T05:59:14;99160.28;;;-1.20;100.00
9905;BME280;4991;43.566;27.820;2023-01-29T06:01:40;99166.22;;;-1.18;100.00
9905;BME280;4991;43.566;27.820;2023-01-29T06:04:06;99159.25;;;-1.19;100.00
9905;BME280;4991;43.566;27.820;2023-01-29T06:06:31;99166.22;;;-1.18;100.00
9905;BME280;4991;43.566;27.820;2023-01-29T06:08:57;99163.56;;;-1.18;100.00
9905;BME280;4991;43.566;27.820;2023-01-29T06:11:23;99170.31;;;-1.16;100.00
9905;BME280;4991;43.566;27.820;2023-01-29T06:13:49;99174.47;;;-1.20;100.00
9905;BME280;4991;43.566;27.820;2023-01-29T06:16:15;99172.19;;;-1.16;100.00
9905;BME280;4991;43.566;27.820;2023-01-29T06:18:41;99177.91;;;-1.13;100.00
9905;BME280;4991;43.566;27.820;2023-01-29T06:21:09;99186.28;;;-1.09;100.00
9905;BME280;4991;43.566;27.820;2023-01-29T06:23:36;99164.91;;;-1.09;100.00
9905;BME280;4991;43.566;27.820;2023-01-29T06:26:10;99181.31;;;-1.06;100.00
9905;BME280;4991;43.566;27.820;2023-01-29T06:28:36;99173.69;;;-1.02;100.00
9905;BME280;4991;43.566;27.820;2023-01-29T06:31:03;99174.22;;;-0.94;100.00
9905;BME280;4991;43.566;27.820;2023-01-29T06:33:29;99181.78;;;-0.91;100.00
9905;BME280;4991;43.566;27.820;2023-01-29T06:35:59;99184.84;;;-0.87;100.00
9905;BME280;4991;43.566;27.820;2023-01-29T06:38:25;99186.13;;;-0.90;100.00
9905;BME280;4991;43.566;27.820;2023-01-29T06:40:51;99185.06;;;-0.89;100.00
9905;BME280;4991;43.566;27.820;2023-01-29T06:43:17;99198.59;;;-0.84;100.00
9905;BME280;4991;43.566;27.820;2023-01-29T06:46:01;99194.53;;;-0.68;100.00
9905;BME280;4991;43.566;27.820;2023-01-29T06:48:28;99191.19;;;-0.64;100.00
9905;BME280;4991;43.566;27.820;2023-01-29T06:50:53;99185.31;;;-0.72;100.00
9905;BME280;4991;43.566;27.820;2023-01-29T06:53:19;99201.06;;;-0.64;100.00
9905;BME280;4991;43.566;27.820;2023-01-29T06:55:52;99201.13;;;-0.71;100.00
9905;BME280;4991;43.566;27.820;2023-01-29T06:58:19;99198.00;;;-0.68;100.00
9905;BME280;4991;43.566;27.820;2023-01-29T07:00:47;99198.75;;;-0.61;100.00
9905;BME280;4991;43.566;27.820;2023-01-29T07:03:12;99198.53;;;-0.59;100.00
9905;BME280;4991;43.566;27.820;2023-01-29T07:05:38;99206.31;;;-0.58;100.00
9905;BME280;4991;43.566;27.820;2023-01-29T07:08:04;99207.97;;;-0.57;100.00
9905;BME280;4991;43.566;27.820;2023-01-29T07:10:32;99213.09;;;-0.55;100.00
9905;BME280;4991;43.566;27.820;2023-01-29T07:12:58;99208.34;;;-0.53;100.00
9905;BME280;4991;43.566;27.820;2023-01-29T07:15:24;99197.72;;;-0.60;100.00
9905;BME280;4991;43.566;27.820;2023-01-29T07:17:57;99208.22;;;-0.58;100.00
9905;BME280;4991;43.566;27.820;2023-01-29T07:20:25;99222.75;;;-0.54;100.00
9905;BME280;4991;43.566;27.820;2023-01-29T07:22:51;99215.19;;;-0.57;100.00
9905;BME280;4991;43.566;27.820;2023-01-29T07:25:16;99212.28;;;-0.56;100.00
9905;BME280;4991;43.566;27.820;2023-01-29T07:27:42;99240.59;;;-0.48;100.00
9905;BME280;4991;43.566;27.820;2023-01-29T07:30:08;99224.75;;;-0.50;100.00
9905;BME280;4991;43.566;27.820;2023-01-29T07:32:34;99220.16;;;-0.43;100.00
9905;BME280;4991;43.566;27.820;2023-01-29T07:34:59;99223.06;;;-0.44;100.00
9905;BME280;4991;43.566;27.820;2023-01-29T07:37:25;99224.41;;;-0.53;100.00
9905;BME280;4991;43.566;27.820;2023-01-29T07:39:50;99217.69;;;-0.44;100.00
9905;BME280;4991;43.566;27.820;2023-01-29T07:42:16;99222.38;;;-0.40;100.00
9905;BME280;4991;43.566;27.820;2023-01-29T07:44:42;99227.53;;;-0.38;100.00
9905;BME280;4991;43.566;27.820;2023-01-29T07:47:08;99232.06;;;-0.39;100.00
9905;BME280;4991;43.566;27.820;2023-01-29T07:49:33;99235.59;;;-0.45;100.00
9905;BME280;4991;43.566;27.820;2023-01-29T07:51:59;99238.28;;;-0.45;100.00
9905;BME280;4991;43.566;27.820;2023-01-29T07:54:25;99232.94;;;-0.45;100.00
9905;BME280;4991;43.566;27.820;2023-01-29T07:56:52;99239.78;;;-0.49;100.00
9905;BME280;4991;43.566;27.820;2023-01-29T07:59:17;99235.03;;;-0.47;100.00
9905;BME280;4991;43.566;27.820;2023-01-29T08:01:43;99249.44;;;-0.48;100.00
9905;BME280;4991;43.566;27.820;2023-01-29T08:04:08;99238.94;;;-0.49;100.00
9905;BME280;4991;43.566;27.820;2023-01-29T08:06:34;99243.53;;;-0.56;100.00
9905;BME280;4991;43.566;27.820;2023-01-29T08:09:00;99242.69;;;-0.50;100.00
9905;BME280;4991;43.566;27.820;2023-01-29T08:11:26;99249.19;;;-0.46;100.00
9905;BME280;4991;43.566;27.820;2023-01-29T08:13:52;99246.81;;;-0.54;100.00
9905;BME280;4991;43.566;27.820;2023-01-29T08:16:18;99255.97;;;-0.44;100.00
9905;BME280;4991;43.566;27.820;2023-01-29T08:18:44;99256.97;;;-0.38;100.00
9905;BME280;4991;43.566;27.820;2023-01-29T08:21:12;99260.34;;;-0.49;100.00
9905;BME280;4991;43.566;27.820;2023-01-29T08:23:38;99243.47;;;-0.50;100.00
9905;BME280;4991;43.566;27.820;2023-01-29T08:26:03;99253.00;;;-0.54;100.00
9905;BME280;4991;43.566;27.820;2023-01-29T08:28:29;99254.03;;;-0.55;100.00
9905;BME280;4991;43.566;27.820;2023-01-29T08:30:55;99251.09;;;-0.47;100.00
9905;BME280;4991;43.566;27.820;2023-01-29T08:33:21;99249.06;;;-0.33;100.00
9905;BME280;4991;43.566;27.820;2023-01-29T08:35:50;99256.22;;;-0.27;100.00
9905;BME280;4991;43.566;27.820;2023-01-29T08:38:16;99250.47;;;-0.31;100.00
9905;BME280;4991;43.566;27.820;2023-01-29T08:40:45;99258.88;;;-0.27;100.00
9905;BME280;4991;43.566;27.820;2023-01-29T08:43:12;99255.75;;;-0.24;100.00
9905;BME280;4991;43.566;27.820;2023-01-29T08:45:41;99261.09;;;-0.42;100.00
9905;BME280;4991;43.566;27.820;2023-01-29T08:48:08;99260.28;;;-0.43;100.00
9905;BME280;4991;43.566;27.820;2023-01-29T08:50:34;99260.88;;;-0.41;100.00
9905;BME280;4991;43.566;27.820;2023-01-29T08:53:01;99251.00;;;-0.40;100.00
9905;BME280;4991;43.566;27.820;2023-01-29T08:55:28;99247.06;;;-0.38;100.00
9905;BME280;4991;43.566;27.820;2023-01-29T08:57:54;99250.03;;;-0.28;100.00
9905;BME280;4991;43.566;27.820;2023-01-29T09:00:21;99255.09;;;-0.38;100.00
9905;BME280;4991;43.566;27.820;2023-01-29T09:02:47;99256.28;;;-0.34;100.00
9905;BME280;4991;43.566;27.820;2023-01-29T09:05:13;99266.75;;;-0.32;100.00
9905;BME280;4991;43.566;27.820;2023-01-29T09:07:39;99263.88;;;-0.31;100.00
9905;BME280;4991;43.566;27.820;2023-01-29T09:10:05;99268.00;;;-0.35;100.00
9905;BME280;4991;43.566;27.820;2023-01-29T09:12:31;99258.88;;;-0.45;100.00
9905;BME280;4991;43.566;27.820;2023-01-29T09:14:58;99257.44;;;-0.48;100.00
9905;BME280;4991;43.566;27.820;2023-01-29T09:17:23;99266.47;;;-0.42;100.00
9905;BME280;4991;43.566;27.820;2023-01-29T09:19:49;99263.19;;;-0.44;100.00
9905;BME280;4991;43.566;27.820;2023-01-29T09:22:17;99255.84;;;-0.31;100.00
9905;BME280;4991;43.566;27.820;2023-01-29T09:24:43;99251.88;;;-0.28;100.00
9905;BME280;4991;43.566;27.820;2023-01-29T09:27:08;99260.13;;;-0.30;100.00
9905;BME280;4991;43.566;27.820;2023-01-29T09:29:35;99252.78;;;-0.34;100.00
9905;BME280;4991;43.566;27.820;2023-01-29T09:32:02;99246.59;;;-0.53;100.00
9905;BME280;4991;43.566;27.820;2023-01-29T09:34:27;99251.38;;;-0.37;100.00
9905;BME280;4991;43.566;27.820;2023-01-29T09:36:53;99248.25;;;-0.34;100.00
9905;BME280;4991;43.566;27.820;2023-01-29T09:39:18;99255.75;;;-0.42;100.00
9905;BME280;4991;43.566;27.820;2023-01-29T09:45:04;99250.25;;;-0.47;100.00
9905;BME280;4991;43.566;27.820;2023-01-29T09:47:32;99252.25;;;-0.43;100.00
9905;BME280;4991;43.566;27.820;2023-01-29T09:50:00;99241.19;;;-0.46;100.00
9905;BME280;4991;43.566;27.820;2023-01-29T09:52:33;99252.63;;;-0.39;100.00
9905;BME280;4991;43.566;27.820;2023-01-29T09:55:09;99249.59;;;-0.43;100.00
9905;BME280;4991;43.566;27.820;2023-01-29T09:57:52;99237.47;;;-0.45;100.00
9905;BME280;4991;43.566;27.820;2023-01-29T10:00:56;99245.19;;;-0.55;100.00
9905;BME280;4991;43.566;27.820;2023-01-29T10:12:49;99239.69;;;-0.78;100.00
9905;BME280;4991;43.566;27.820;2023-01-29T10:25:46;99236.06;;;-0.48;100.00
9905;BME280;4991;43.566;27.820;2023-01-29T10:28:35;99234.97;;;-0.40;100.00
9905;BME280;4991;43.566;27.820;2023-01-29T10:31:10;99234.19;;;-0.11;100.00
9905;BME280;4991;43.566;27.820;2023-01-29T10:33:42;99233.66;;;-0.02;100.00
9905;BME280;4991;43.566;27.820;2023-01-29T10:36:16;99230.91;;;-0.13;100.00
9905;BME280;4991;43.566;27.820;2023-01-29T10:38:45;99239.25;;;-0.21;100.00
9905;BME280;4991;43.566;27.820;2023-01-29T10:41:14;99235.97;;;-0.23;100.00
9905;BME280;4991;43.566;27.820;2023-01-29T10:57:13;99216.63;;;0.11;100.00
9905;BME280;4991;43.566;27.820;2023-01-29T11:02:32;99206.94;;;0.10;100.00
9905;BME280;4991;43.566;27.820;2023-01-29T11:04:58;99201.81;;;0.09;100.00
9905;BME280;4991;43.566;27.820;2023-01-29T11:07:24;99208.25;;;-0.11;100.00
9905;BME280;4991;43.566;27.820;2023-01-29T11:10:10;99204.75;;;-0.11;100.00
9905;BME280;4991;43.566;27.820;2023-01-29T11:12:39;99207.22;;;-0.28;100.00
9905;BME280;4991;43.566;27.820;2023-01-29T11:15:15;99215.63;;;-0.42;100.00
9905;BME280;4991;43.566;27.820;2023-01-29T11:18:11;99213.78;;;-0.42;100.00
9905;BME280;4991;43.566;27.820;2023-01-29T11:20:39;99200.19;;;-0.40;100.00
9905;BME280;4991;43.566;27.820;2023-01-29T11:23:24;99206.13;;;-0.38;100.00
9905;BME280;4991;43.566;27.820;2023-01-29T11:25:55;99205.75;;;-0.42;100.00
9905;BME280;4991;43.566;27.820;2023-01-29T11:28:42;99199.34;;;-0.41;100.00
9905;BME280;4991;43.566;27.820;2023-01-29T11:31:35;99202.09;;;-0.47;100.00
9905;BME280;4991;43.566;27.820;2023-01-29T11:34:20;99197.97;;;-0.43;100.00
9905;BME280;4991;43.566;27.820;2023-01-29T11:39:25;99201.03;;;-0.28;100.00
9905;BME280;4991;43.566;27.820;2023-01-29T11:41:58;99199.09;;;-0.21;100.00
9905;BME280;4991;43.566;27.820;2023-01-29T11:44:41;99196.03;;;-0.07;100.00
9905;BME280;4991;43.566;27.820;2023-01-29T11:47:20;99198.84;;;-0.02;100.00
9905;BME280;4991;43.566;27.820;2023-01-29T11:50:19;99198.09;;;-0.20;100.00
9905;BME280;4991;43.566;27.820;2023-01-29T11:52:47;99201.78;;;-0.21;100.00
9905;BME280;4991;43.566;27.820;2023-01-29T11:55:17;99189.28;;;-0.09;100.00
9905;BME280;4991;43.566;27.820;2023-01-29T11:58:06;99188.75;;;0.00;100.00
9905;BME280;4991;43.566;27.820;2023-01-29T12:00:38;99183.94;;;-0.09;100.00
9905;BME280;4991;43.566;27.820;2023-01-29T12:06:01;99182.41;;;0.13;100.00
9905;BME280;4991;43.566;27.820;2023-01-29T12:08:38;99180.66;;;0.19;100.00
9905;BME280;4991;43.566;27.820;2023-01-29T12:11:22;99183.66;;;0.11;100.00
9905;BME280;4991;43.566;27.820;2023-01-29T12:14:00;99186.06;;;0.00;100.00
9905;BME280;4991;43.566;27.820;2023-01-29T12:16:32;99185.38;;;0.05;100.00
9905;BME280;4991;43.566;27.820;2023-01-29T12:21:52;99193.94;;;-0.05;100.00
9905;BME280;4991;43.566;27.820;2023-01-29T12:24:30;99184.16;;;-0.11;100.00
9905;BME280;4991;43.566;27.820;2023-01-29T12:27:14;99178.84;;;0.01;100.00
9905;BME280;4991;43.566;27.820;2023-01-29T12:29:48;99183.47;;;0.24;100.00
9905;BME280;4991;43.566;27.820;2023-01-29T12:32:31;99180.81;;;0.35;100.00
9905;BME280;4991;43.566;27.820;2023-01-29T12:37:47;99182.00;;;0.39;100.00
9905;BME280;4991;43.566;27.820;2023-01-29T12:40:17;99176.44;;;0.52;100.00
9905;BME280;4991;43.566;27.820;2023-01-29T12:42:52;99169.00;;;0.54;100.00
9905;BME280;4991;43.566;27.820;2023-01-29T12:45:23;99179.66;;;0.31;100.00
9905;BME280;4991;43.566;27.820;2023-01-29T12:47:51;99168.88;;;0.49;100.00
9905;BME280;4991;43.566;27.820;2023-01-29T12:50:19;99172.31;;;0.38;100.00
9905;BME280;4991;43.566;27.820;2023-01-29T12:52:52;99180.69;;;0.30;100.00
9905;BME280;4991;43.566;27.820;2023-01-29T12:55:24;99178.50;;;0.39;100.00
9905;BME280;4991;43.566;27.820;2023-01-29T12:58:01;99192.13;;;0.37;100.00
9905;BME280;4991;43.566;27.820;2023-01-29T13:00:32;99187.94;;;0.30;100.00
9905;BME280;4991;43.566;27.820;2023-01-29T13:03:00;99196.19;;;0.28;100.00
9905;BME280;4991;43.566;27.820;2023-01-29T13:05:51;99195.09;;;0.18;100.00
9905;BME280;4991;43.566;27.820;2023-01-29T13:08:24;99201.06;;;0.20;100.00
9905;BME280;4991;43.566;27.820;2023-01-29T13:10:53;99197.09;;;0.22;100.00
9905;BME280;4991;43.566;27.820;2023-01-29T13:14:03;99195.72;;;0.31;100.00
9905;BME280;4991;43.566;27.820;2023-01-29T13:16:24;99199.06;;;0.27;100.00
9905;BME280;4991;43.566;27.820;2023-01-29T13:19:17;99194.53;;;0.27;100.00
9905;BME280;4991;43.566;27.820;2023-01-29T13:21:45;99203.53;;;0.33;100.00
9905;BME280;4991;43.566;27.820;2023-01-29T13:24:17;99197.94;;;0.34;100.00
9905;BME280;4991;43.566;27.820;2023-01-29T13:26:45;99195.59;;;0.26;100.00
9905;BME280;4991;43.566;27.820;2023-01-29T13:29:27;99200.25;;;0.31;100.00
9905;BME280;4991;43.566;27.820;2023-01-29T13:32:02;99198.09;;;0.39;100.00
9905;BME280;4991;43.566;27.820;2023-01-29T13:34:34;99197.69;;;0.24;100.00
9905;BME280;4991;43.566;27.820;2023-01-29T13:39:53;99199.44;;;0.00;100.00
9905;BME280;4991;43.566;27.820;2023-01-29T13:42:46;99204.84;;;0.12;100.00
9905;BME280;4991;43.566;27.820;2023-01-29T13:45:20;99202.25;;;0.06;100.00
9905;BME280;4991;43.566;27.820;2023-01-29T13:47:47;99210.63;;;-0.03;100.00
9905;BME280;4991;43.566;27.820;2023-01-29T13:50:23;99197.00;;;-0.01;100.00
9905;BME280;4991;43.566;27.820;2023-01-29T13:52:56;99211.16;;;-0.12;100.00
9905;BME280;4991;43.566;27.820;2023-01-29T13:55:39;99220.44;;;-0.15;100.00
9905;BME280;4991;43.566;27.820;2023-01-29T14:00:59;99216.72;;;-0.14;100.00
9905;BME280;4991;43.566;27.820;2023-01-29T14:13:48;99214.28;;;-0.33;100.00
9905;BME280;4991;43.566;27.820;2023-01-29T14:18:47;99225.88;;;-0.39;100.00
9905;BME280;4991;43.566;27.820;2023-01-29T14:21:24;99227.16;;;-0.42;100.00
9905;BME280;4991;43.566;27.820;2023-01-29T14:23:53;99233.91;;;-0.39;100.00
9905;BME280;4991;43.566;27.820;2023-01-29T14:29:02;99231.44;;;-0.41;100.00
9905;BME280;4991;43.566;27.820;2023-01-29T14:31:39;99228.84;;;-0.47;100.00
9905;BME280;4991;43.566;27.820;2023-01-29T14:34:22;99228.19;;;-0.43;100.00
9905;BME280;4991;43.566;27.820;2023-01-29T14:36:52;99231.22;;;-0.39;100.00
9905;BME280;4991;43.566;27.820;2023-01-29T14:39:35;99231.91;;;-0.44;100.00
9905;BME280;4991;43.566;27.820;2023-01-29T14:42:05;99235.41;;;-0.43;100.00
9905;BME280;4991;43.566;27.820;2023-01-29T14:44:47;99234.81;;;-0.45;100.00
9905;BME280;4991;43.566;27.820;2023-01-29T14:47:24;99238.50;;;-0.46;100.00
9905;BME280;4991;43.566;27.820;2023-01-29T14:56:03;99235.69;;;-0.51;100.00
9905;BME280;4991;43.566;27.820;2023-01-29T15:01:01;99234.72;;;-0.57;100.00
9905;BME280;4991;43.566;27.820;2023-01-29T15:03:36;99241.09;;;-0.58;100.00
9905;BME280;4991;43.566;27.820;2023-01-29T15:06:05;99244.59;;;-0.57;100.00
9905;BME280;4991;43.566;27.820;2023-01-29T15:08:39;99240.06;;;-0.57;100.00
9905;BME280;4991;43.566;27.820;2023-01-29T15:11:17;99239.75;;;-0.67;100.00
9905;BME280;4991;43.566;27.820;2023-01-29T15:19:45;99241.84;;;-0.69;100.00
9905;BME280;4991;43.566;27.820;2023-01-29T15:22:19;99246.13;;;-0.68;100.00
9905;BME280;4991;43.566;27.820;2023-01-29T15:25:00;99253.59;;;-0.70;100.00
9905;BME280;4991;43.566;27.820;2023-01-29T15:27:27;99250.75;;;-0.75;100.00
9905;BME280;4991;43.566;27.820;2023-01-29T15:30:01;99263.44;;;-0.70;100.00
9905;BME280;4991;43.566;27.820;2023-01-29T15:32:38;99256.44;;;-0.71;100.00
9905;BME280;4991;43.566;27.820;2023-01-29T15:35:07;99255.50;;;-0.77;100.00
9905;BME280;4991;43.566;27.820;2023-01-29T15:37:35;99253.78;;;-0.71;100.00
9905;BME280;4991;43.566;27.820;2023-01-29T15:40:04;99263.91;;;-0.73;100.00
9905;BME280;4991;43.566;27.820;2023-01-29T15:42:45;99261.00;;;-0.72;100.00
9905;BME280;4991;43.566;27.820;2023-01-29T15:45:23;99261.00;;;-0.72;100.00
9905;BME280;4991;43.566;27.820;2023-01-29T15:47:52;99263.69;;;-0.72;100.00